sensor_id;sensor_type;location;lat;lon;timestamp;pressure;altitude;pressure_sealevel;temperature;humidity
72086;BME280;64750;52.134;5.424;2023-04-05T00:00:54;102745.13;;;6.24;63.65
72086;BME280;64750;52.134;5.424;2023-04-05T00:03:21;102739.09;;;6.19;63.62
72086;BME280;64750;52.134;5.424;2023-04-05T00:05:48;102740.84;;;6.17;63.78
72086;BME280;64750;52.134;5.424;2023-04-05T00:08:15;102741.75;;;6.15;64.02
72086;BME280;64750;52.134;5.424;2023-04-05T00:10:52;102741.78;;;6.13;63.98
72086;BME280;64750;52.134;5.424;2023-04-05T00:13:19;102750.53;;;6.09;63.97
72086;BME280;64750;52.134;5.424;2023-04-05T00:15:47;102736.59;;;6.07;63.85
72086;BME280;64750;52.134;5.424;2023-04-05T00:18:14;102735.78;;;6.03;63.77
72086;BME280;64750;52.134;5.424;2023-04-05T00:20:50;102735.81;;;6.00;64.29
72086;BME280;64750;52.134;5.424;2023-04-05T00:23:17;102734.94;;;5.97;64.32
72086;BME280;64750;52.134;5.424;2023-04-05T00:25:43;102726.25;;;5.95;64.51
72086;BME280;64750;52.134;5.424;2023-04-05T00:28:11;102728.03;;;5.93;64.59
72086;BME280;64750;52.134;5.424;2023-04-05T00:30:38;102732.38;;;5.92;64.74
72086;BME280;64750;52.134;5.424;2023-04-05T00:33:05;102728.03;;;5.89;64.79
72086;BME280;64750;52.134;5.424;2023-04-05T00:35:31;102731.56;;;5.85;65.03
72086;BME280;64750;52.134;5.424;2023-04-05T00:37:58;102736.03;;;5.74;65.11
72086;BME280;64750;52.134;5.424;2023-04-05T00:40:24;102735.19;;;5.72;65.33
72086;BME280;64750;52.134;5.424;2023-04-05T00:42:51;102720.41;;;5.71;65.26
72086;BME280;64750;52.134;5.424;2023-04-05T00:45:17;102722.97;;;5.77;65.29
72086;BME280;64750;52.134;5.424;2023-04-05T00:47:44;102716.88;;;5.77;65.08
72086;BME280;64750;52.134;5.424;2023-04-05T00:50:11;102718.66;;;5.74;65.24
72086;BME280;64750;52.134;5.424;2023-04-05T00:52:39;102722.19;;;5.67;65.10
72086;BME280;64750;52.134;5.424;2023-04-05T00:55:09;102724.88;;;5.55;64.97
72086;BME280;64750;52.134;5.424;2023-04-05T00:57:36;102722.31;;;5.52;64.85
72086;BME280;64750;52.134;5.424;2023-04-05T01:00:05;102718.00;;;5.49;64.80
72086;BME280;64750;52.134;5.424;2023-04-05T01:02:45;102716.28;;;5.45;64.72
72086;BME280;64750;52.134;5.424;2023-04-05T01:05:24;102711.91;;;5.47;64.94
72086;BME280;64750;52.134;5.424;2023-04-05T01:08:15;102716.28;;;5.45;65.29
72086;BME280;64750;52.134;5.424;2023-04-05T01:10:46;102711.09;;;5.42;65.06
72086;BME280;64750;52.134;5.424;2023-04-05T01:13:15;102706.81;;;5.36;65.21
72086;BME280;64750;52.134;5.424;2023-04-05T01:15:43;102715.56;;;5.31;64.91
72086;BME280;64750;52.134;5.424;2023-04-05T01:18:12;102704.25;;;5.29;64.70
72086;BME280;64750;52.134;5.424;2023-04-05T01:20:46;102705.16;;;5.24;64.89
72086;BME280;64750;52.134;5.424;2023-04-05T01:23:27;102698.19;;;5.25;65.33
72086;BME280;64750;52.134;5.424;2023-04-05T01:32:02;102697.44;;;5.12;65.41
72086;BME280;64750;52.134;5.424;2023-04-05T01:34:39;102696.56;;;5.12;65.54
72086;BME280;64750;52.134;5.424;2023-04-05T01:37:11;102700.06;;;5.09;65.47
72086;BME280;64750;52.134;5.424;2023-04-05T01:39:38;102691.41;;;5.04;65.26
72086;BME280;64750;52.134;5.424;2023-04-05T01:42:05;102687.94;;;5.03;65.49
72086;BME280;64750;52.134;5.424;2023-04-05T01:44:32;102697.47;;;5.06;65.64
72086;BME280;64750;52.134;5.424;2023-04-05T01:46:58;102692.28;;;5.03;65.31
72086;BME280;64750;52.134;5.424;2023-04-05T01:49:24;102699.28;;;4.98;65.72
72086;BME280;64750;52.134;5.424;2023-04-05T01:51:51;102696.63;;;5.02;65.61
72086;BME280;64750;52.134;5.424;2023-04-05T01:54:17;102692.31;;;5.01;65.48
72086;BME280;64750;52.134;5.424;2023-04-05T01:56:44;102687.13;;;4.97;65.78
72086;BME280;64750;52.134;5.424;2023-04-05T01:59:11;102681.09;;;4.85;65.80
72086;BME280;64750;52.134;5.424;2023-04-05T02:01:37;102675.91;;;4.84;66.21
72086;BME280;64750;52.134;5.424;2023-04-05T02:04:04;102668.06;;;4.85;65.98
72086;BME280;64750;52.134;5.424;2023-04-05T02:06:30;102666.34;;;4.83;65.70
72086;BME280;64750;52.134;5.424;2023-04-05T02:08:57;102668.16;;;4.76;65.82
72086;BME280;64750;52.134;5.424;2023-04-05T02:11:23;102669.88;;;4.74;66.12
72086;BME280;64750;52.134;5.424;2023-04-05T02:13:50;102667.28;;;4.72;65.75
72086;BME280;64750;52.134;5.424;2023-04-05T02:16:16;102668.19;;;4.70;66.13
72086;BME280;64750;52.134;5.424;2023-04-05T02:18:44;102669.91;;;4.68;65.75
72086;BME280;64750;52.134;5.424;2023-04-05T02:21:15;102667.34;;;4.65;66.11
72086;BME280;64750;52.134;5.424;2023-04-05T02:23:42;102661.25;;;4.66;66.18
72086;BME280;64750;52.134;5.424;2023-04-05T02:26:09;102661.25;;;4.66;65.81
72086;BME280;64750;52.134;5.424;2023-04-05T02:28:35;102654.34;;;4.58;65.87
72086;BME280;64750;52.134;5.424;2023-04-05T02:31:07;102660.44;;;4.56;66.07
72086;BME280;64750;52.134;5.424;2023-04-05T02:33:34;102653.50;;;4.55;65.81
72086;BME280;64750;52.134;5.424;2023-04-05T02:36:03;102657.00;;;4.54;66.35
72086;BME280;64750;52.134;5.424;2023-04-05T02:38:31;102652.63;;;4.57;66.20
72086;BME280;64750;52.134;5.424;2023-04-05T02:40:58;102657.84;;;4.54;66.13
72086;BME280;64750;52.134;5.424;2023-04-05T02:43:24;102659.63;;;4.49;66.06
72086;BME280;64750;52.134;5.424;2023-04-05T02:45:51;102652.66;;;4.48;66.05
72086;BME280;64750;52.134;5.424;2023-04-05T02:48:17;102648.34;;;4.46;65.87
72086;BME280;64750;52.134;5.424;2023-04-05T02:50:48;102652.72;;;4.39;65.93
72086;BME280;64750;52.134;5.424;2023-04-05T02:53:17;102649.25;;;4.35;66.11
72086;BME280;64750;52.134;5.424;2023-04-05T02:55:51;102650.16;;;4.31;66.38
72086;BME280;64750;52.134;5.424;2023-04-05T02:58:18;102640.56;;;4.38;66.83
72086;BME280;64750;52.134;5.424;2023-04-05T03:00:45;102644.06;;;4.40;66.55
72086;BME280;64750;52.134;5.424;2023-04-05T03:03:17;102644.94;;;4.33;66.75
72086;BME280;64750;52.134;5.424;2023-04-05T03:05:45;102642.38;;;4.26;66.53
72086;BME280;64750;52.134;5.424;2023-04-05T03:08:12;102631.97;;;4.23;66.51
72086;BME280;64750;52.134;5.424;2023-04-05T03:10:45;102639.81;;;4.22;66.46
72086;BME280;64750;52.134;5.424;2023-04-05T03:13:13;102630.25;;;4.16;66.66
72086;BME280;64750;52.134;5.424;2023-04-05T03:15:40;102633.75;;;4.18;66.49
72086;BME280;64750;52.134;5.424;2023-04-05T03:18:08;102629.38;;;4.25;66.46
72086;BME280;64750;52.134;5.424;2023-04-05T03:20:35;102625.91;;;4.21;66.22
72086;BME280;64750;52.134;5.424;2023-04-05T03:23:08;102624.16;;;4.23;66.60
72086;BME280;64750;52.134;5.424;2023-04-05T03:25:35;102619.84;;;4.22;66.50
72086;BME280;64750;52.134;5.424;2023-04-05T03:28:07;102627.66;;;4.19;66.35
72086;BME280;64750;52.134;5.424;2023-04-05T03:30:36;102628.56;;;4.12;66.49
72086;BME280;64750;52.134;5.424;2023-04-05T03:33:03;102621.63;;;4.11;66.60
72086;BME280;64750;52.134;5.424;2023-04-05T03:35:29;102625.97;;;4.07;66.75
72086;BME280;64750;52.134;5.424;2023-04-05T03:37:56;102618.16;;;4.06;66.81
72086;BME280;64750;52.134;5.424;2023-04-05T03:40:23;102616.44;;;4.05;66.68
72086;BME280;64750;52.134;5.424;2023-04-05T03:42:49;102625.09;;;4.07;67.10
72086;BME280;64750;52.134;5.424;2023-04-05T03:45:16;102623.38;;;4.04;67.25
72086;BME280;64750;52.134;5.424;2023-04-05T03:47:49;102614.72;;;4.01;66.89
72086;BME280;64750;52.134;5.424;2023-04-05T03:50:15;102614.72;;;4.02;66.96
72086;BME280;64750;52.134;5.424;2023-04-05T03:52:41;102623.38;;;4.00;66.88
72086;BME280;64750;52.134;5.424;2023-04-05T03:55:08;102623.41;;;4.03;66.80
72086;BME280;64750;52.134;5.424;2023-04-05T03:57:36;102619.97;;;3.96;66.75
72086;BME280;64750;52.134;5.424;2023-04-05T04:00:03;102629.50;;;3.91;66.87
72086;BME280;64750;52.134;5.424;2023-04-05T04:02:44;102615.63;;;3.90;66.85
72086;BME280;64750;52.134;5.424;2023-04-05T04:05:11;102619.97;;;3.88;67.12
72086;BME280;64750;52.134;5.424;2023-04-05T04:07:38;102621.72;;;3.83;67.40
72086;BME280;64750;52.134;5.424;2023-04-05T04:10:05;102620.00;;;3.79;67.91
72086;BME280;64750;52.134;5.424;2023-04-05T04:12:31;102620.00;;;3.82;67.54
72086;BME280;64750;52.134;5.424;2023-04-05T04:14:58;102619.13;;;3.86;67.94
72086;BME280;64750;52.134;5.424;2023-04-05T04:17:29;102619.13;;;3.85;67.87
72086;BME280;64750;52.134;5.424;2023-04-05T04:19:56;102622.59;;;3.79;67.23
72086;BME280;64750;52.134;5.424;2023-04-05T04:22:24;102620.03;;;3.74;67.36
72086;BME280;64750;52.134;5.424;2023-04-05T04:24:59;102620.84;;;3.78;67.95
72086;BME280;64750;52.134;5.424;2023-04-05T04:27:30;102617.41;;;3.76;67.85
72086;BME280;64750;52.134;5.424;2023-04-05T04:29:56;102620.03;;;3.68;67.41
72086;BME280;64750;52.134;5.424;2023-04-05T04:32:29;102620.91;;;3.73;67.26
72086;BME280;64750;52.134;5.424;2023-04-05T04:35:14;102613.94;;;3.77;67.71
72086;BME280;64750;52.134;5.424;2023-04-05T04:37:44;102620.00;;;3.73;67.32
72086;BME280;64750;52.134;5.424;2023-04-05T04:40:13;102621.78;;;3.65;67.28
72086;BME280;64750;52.134;5.424;2023-04-05T04:42:45;102615.72;;;3.66;67.20
72086;BME280;64750;52.134;5.424;2023-04-05T04:45:16;102610.50;;;3.66;67.47
72086;BME280;64750;52.134;5.424;2023-04-05T04:47:44;102617.47;;;3.59;67.39
72086;BME280;64750;52.134;5.424;2023-04-05T04:50:11;102614.88;;;3.60;67.73
72086;BME280;64750;52.134;5.424;2023-04-05T04:52:38;102621.78;;;3.63;67.77
72086;BME280;64750;52.134;5.424;2023-04-05T04:55:07;102614.84;;;3.67;67.68
72086;BME280;64750;52.134;5.424;2023-04-05T04:57:33;102613.94;;;3.74;67.80
72086;BME280;64750;52.134;5.424;2023-04-05T05:00:00;102614.81;;;3.70;67.76
72086;BME280;64750;52.134;5.424;2023-04-05T05:02:26;102615.69;;;3.63;67.68
72086;BME280;64750;52.134;5.424;2023-04-05T05:04:56;102616.59;;;3.61;67.09
72086;BME280;64750;52.134;5.424;2023-04-05T05:07:23;102607.91;;;3.63;67.45
72086;BME280;64750;52.134;5.424;2023-04-05T05:09:49;102616.59;;;3.61;67.65
72086;BME280;64750;52.134;5.424;2023-04-05T05:12:18;102608.78;;;3.61;67.39
72086;BME280;64750;52.134;5.424;2023-04-05T05:14:44;102609.63;;;3.64;67.81
72086;BME280;64750;52.134;5.424;2023-04-05T05:17:10;102606.19;;;3.65;67.89
72086;BME280;64750;52.134;5.424;2023-04-05T05:19:37;102606.19;;;3.65;68.10
72086;BME280;64750;52.134;5.424;2023-04-05T05:22:04;102604.47;;;3.59;67.87
72086;BME280;64750;52.134;5.424;2023-04-05T05:24:30;102608.81;;;3.54;67.76
72086;BME280;64750;52.134;5.424;2023-04-05T05:26:56;102605.34;;;3.52;68.13
72086;BME280;64750;52.134;5.424;2023-04-05T05:29:23;102606.19;;;3.52;68.07
72086;BME280;64750;52.134;5.424;2023-04-05T05:31:49;102607.06;;;3.57;68.25
72086;BME280;64750;52.134;5.424;2023-04-05T05:34:16;102597.53;;;3.59;67.51
72086;BME280;64750;52.134;5.424;2023-04-05T05:36:42;102605.34;;;3.56;67.85
72086;BME280;64750;52.134;5.424;2023-04-05T05:39:09;102606.19;;;3.52;67.86
72086;BME280;64750;52.134;5.424;2023-04-05T05:41:35;102610.53;;;3.55;67.55
72086;BME280;64750;52.134;5.424;2023-04-05T05:44:01;102613.13;;;3.58;67.12
72086;BME280;64750;52.134;5.424;2023-04-05T05:46:28;102611.38;;;3.65;67.50
72086;BME280;64750;52.134;5.424;2023-04-05T05:48:54;102614.81;;;3.65;67.93
72086;BME280;64750;52.134;5.424;2023-04-05T05:51:21;102614.00;;;3.61;67.25
72086;BME280;64750;52.134;5.424;2023-04-05T05:53:48;102603.56;;;3.65;68.05
72086;BME280;64750;52.134;5.424;2023-04-05T05:56:14;102617.44;;;3.62;67.57
72086;BME280;64750;52.134;5.424;2023-04-05T05:58:41;102603.59;;;3.61;67.77
72086;BME280;64750;52.134;5.424;2023-04-05T06:01:07;102612.25;;;3.62;68.30
72086;BME280;64750;52.134;5.424;2023-04-05T06:03:34;102610.50;;;3.63;68.12
72086;BME280;64750;52.134;5.424;2023-04-05T06:06:00;102608.75;;;3.68;68.19
72086;BME280;64750;52.134;5.424;2023-04-05T06:08:30;102607.91;;;3.72;67.61
72086;BME280;64750;52.134;5.424;2023-04-05T06:10:57;102611.34;;;3.75;67.97
72086;BME280;64750;52.134;5.424;2023-04-05T06:13:23;102611.34;;;3.77;67.78
72086;BME280;64750;52.134;5.424;2023-04-05T06:15:50;102606.13;;;3.75;67.58
72086;BME280;64750;52.134;5.424;2023-04-05T06:18:17;102612.22;;;3.77;68.10
72086;BME280;64750;52.134;5.424;2023-04-05T06:20:43;102615.66;;;3.83;67.71
72086;BME280;64750;52.134;5.424;2023-04-05T06:23:10;102616.50;;;3.86;67.52
72086;BME280;64750;52.134;5.424;2023-04-05T06:25:37;102615.63;;;3.90;67.66
72086;BME280;64750;52.134;5.424;2023-04-05T06:28:04;102610.41;;;3.93;67.27
72086;BME280;64750;52.134;5.424;2023-04-05T06:30:31;102620.81;;;3.98;67.54
72086;BME280;64750;52.134;5.424;2023-04-05T06:32:59;102614.75;;;3.98;66.97
72086;BME280;64750;52.134;5.424;2023-04-05T06:35:26;102621.66;;;4.02;66.60
72086;BME280;64750;52.134;5.424;2023-04-05T06:37:52;102618.19;;;4.03;66.71
72086;BME280;64750;52.134;5.424;2023-04-05T06:40:19;102611.25;;;4.02;67.39
72086;BME280;64750;52.134;5.424;2023-04-05T06:42:45;102613.84;;;4.02;66.69
72086;BME280;64750;52.134;5.424;2023-04-05T06:45:12;102609.53;;;4.04;67.18
72086;BME280;64750;52.134;5.424;2023-04-05T06:47:39;102609.50;;;4.07;67.08
72086;BME280;64750;52.134;5.424;2023-04-05T06:50:07;102610.38;;;4.04;66.40
72086;BME280;64750;52.134;5.424;2023-04-05T06:52:34;102619.88;;;4.08;66.71
72086;BME280;64750;52.134;5.424;2023-04-05T06:55:01;102613.78;;;4.13;66.73
72086;BME280;64750;52.134;5.424;2023-04-05T06:57:27;102617.22;;;4.22;66.01
72086;BME280;64750;52.134;5.424;2023-04-05T06:59:54;102607.66;;;4.23;66.11
72086;BME280;64750;52.134;5.424;2023-04-05T07:02:20;102612.00;;;4.29;65.88
72086;BME280;64750;52.134;5.424;2023-04-05T07:04:47;102607.66;;;4.27;65.96
72086;BME280;64750;52.134;5.424;2023-04-05T07:07:14;102610.22;;;4.31;65.77
72086;BME280;64750;52.134;5.424;2023-04-05T07:09:40;102612.84;;;4.34;65.54
72086;BME280;64750;52.134;5.424;2023-04-05T07:12:07;102611.03;;;4.42;65.83
72086;BME280;64750;52.134;5.424;2023-04-05T07:14:36;102610.13;;;4.49;65.38
72086;BME280;64750;52.134;5.424;2023-04-05T07:17:04;102604.06;;;4.50;65.57
72086;BME280;64750;52.134;5.424;2023-04-05T07:19:33;102603.19;;;4.51;65.45
72086;BME280;64750;52.134;5.424;2023-04-05T07:22:00;102603.16;;;4.56;65.31
72086;BME280;64750;52.134;5.424;2023-04-05T07:24:27;102603.09;;;4.64;65.20
72086;BME280;64750;52.134;5.424;2023-04-05T07:26:53;102607.38;;;4.72;64.95
72086;BME280;64750;52.134;5.424;2023-04-05T07:29:19;102600.41;;;4.73;64.92
72086;BME280;64750;52.134;5.424;2023-04-05T07:31:46;102602.16;;;4.74;64.75
72086;BME280;64750;52.134;5.424;2023-04-05T07:34:12;102604.75;;;4.77;65.19
72086;BME280;64750;52.134;5.424;2023-04-05T07:36:39;102596.88;;;4.86;64.90
72086;BME280;64750;52.134;5.424;2023-04-05T07:39:06;102598.56;;;4.90;64.54
72086;BME280;64750;52.134;5.424;2023-04-05T07:41:32;102596.75;;;4.97;64.07
72086;BME280;64750;52.134;5.424;2023-04-05T07:44:00;102594.97;;;5.02;64.19
72086;BME280;64750;52.134;5.424;2023-04-05T07:46:27;102597.59;;;5.02;64.31
72086;BME280;64750;52.134;5.424;2023-04-05T07:48:53;102596.72;;;5.03;64.16
72086;BME280;64750;52.134;5.424;2023-04-05T07:51:20;102597.56;;;5.07;63.86
72086;BME280;64750;52.134;5.424;2023-04-05T07:53:46;102594.91;;;5.12;63.82
72086;BME280;64750;52.134;5.424;2023-04-05T07:56:14;102590.53;;;5.14;63.66
72086;BME280;64750;52.134;5.424;2023-04-05T07:58:41;102593.97;;;5.19;63.90
72086;BME280;64750;52.134;5.424;2023-04-05T08:01:09;102583.50;;;5.23;63.46
72086;BME280;64750;52.134;5.424;2023-04-05T08:03:36;102586.06;;;5.26;63.22
72086;BME280;64750;52.134;5.424;2023-04-05T08:06:12;102580.84;;;5.30;63.62
72086;BME280;64750;52.134;5.424;2023-04-05T08:08:40;102587.72;;;5.37;63.91
72086;BME280;64750;52.134;5.424;2023-04-05T08:11:06;102584.16;;;5.44;63.67
72086;BME280;64750;52.134;5.424;2023-04-05T08:13:33;102586.72;;;5.50;63.62
72086;BME280;64750;52.134;5.424;2023-04-05T08:16:00;102584.84;;;5.63;63.38
72086;BME280;64750;52.134;5.424;2023-04-05T08:18:27;102578.56;;;5.80;63.28
72086;BME280;64750;52.134;5.424;2023-04-05T08:20:54;102575.00;;;5.85;62.49
72086;BME280;64750;52.134;5.424;2023-04-05T08:23:21;102585.31;;;5.96;61.85
72086;BME280;64750;52.134;5.424;2023-04-05T08:25:48;102581.78;;;6.02;61.34
72086;BME280;64750;52.134;5.424;2023-04-05T08:28:15;102582.53;;;6.10;61.11
72086;BME280;64750;52.134;5.424;2023-04-05T08:30:41;102576.34;;;6.20;60.97
72086;BME280;64750;52.134;5.424;2023-04-05T08:33:08;102577.94;;;6.29;60.30
72086;BME280;64750;52.134;5.424;2023-04-05T08:35:35;102578.72;;;6.34;60.37
72086;BME280;64750;52.134;5.424;2023-04-05T08:38:03;102576.88;;;6.43;60.27
72086;BME280;64750;52.134;5.424;2023-04-05T08:40:41;102572.47;;;6.45;59.89
72086;BME280;64750;52.134;5.424;2023-04-05T08:43:22;102566.41;;;6.44;59.90
72086;BME280;64750;52.134;5.424;2023-04-05T08:45:51;102569.00;;;6.44;59.77
72086;BME280;64750;52.134;5.424;2023-04-05T08:48:19;102557.69;;;6.45;60.01
72086;BME280;64750;52.134;5.424;2023-04-05T08:50:50;102567.13;;;6.52;59.88
72086;BME280;64750;52.134;5.424;2023-04-05T08:53:17;102569.72;;;6.55;59.12
72086;BME280;64750;52.134;5.424;2023-04-05T08:55:47;102567.03;;;6.62;58.18
72086;BME280;64750;52.134;5.424;2023-04-05T08:58:15;102569.53;;;6.68;57.40
72086;BME280;64750;52.134;5.424;2023-04-05T09:00:42;102558.16;;;6.72;57.36
72086;BME280;64750;52.134;5.424;2023-04-05T09:03:14;102558.91;;;6.79;56.33
72086;BME280;64750;52.134;5.424;2023-04-05T09:05:47;102557.97;;;6.81;57.02
72086;BME280;64750;52.134;5.424;2023-04-05T09:08:15;102551.03;;;6.80;56.96
72086;BME280;64750;52.134;5.424;2023-04-05T09:10:42;102556.22;;;6.83;56.72
72086;BME280;64750;52.134;5.424;2023-04-05T09:13:09;102548.25;;;6.91;55.96
72086;BME280;64750;52.134;5.424;2023-04-05T09:15:36;102556.00;;;6.96;55.86
72086;BME280;64750;52.134;5.424;2023-04-05T09:18:03;102556.81;;;6.99;55.94
72086;BME280;64750;52.134;5.424;2023-04-05T09:20:44;102553.34;;;6.99;54.89
72086;BME280;64750;52.134;5.424;2023-04-05T09:23:11;102553.28;;;7.02;54.91
72086;BME280;64750;52.134;5.424;2023-04-05T09:25:38;102555.56;;;7.20;55.10
72086;BME280;64750;52.134;5.424;2023-04-05T09:28:06;102550.13;;;7.31;55.15
72086;BME280;64750;52.134;5.424;2023-04-05T09:30:33;102550.16;;;7.30;54.72
72086;BME280;64750;52.134;5.424;2023-04-05T09:33:00;102546.66;;;7.31;54.81
72086;BME280;64750;52.134;5.424;2023-04-05T09:35:31;102549.25;;;7.32;54.60
72086;BME280;64750;52.134;5.424;2023-04-05T09:38:03;102543.97;;;7.34;54.34
72086;BME280;64750;52.134;5.424;2023-04-05T09:40:47;102544.81;;;7.36;55.72
72086;BME280;64750;52.134;5.424;2023-04-05T09:43:37;102541.22;;;7.42;55.37
72086;BME280;64750;52.134;5.424;2023-04-05T09:46:04;102542.84;;;7.47;55.43
72086;BME280;64750;52.134;5.424;2023-04-05T09:48:46;102548.91;;;7.49;54.93
72086;BME280;64750;52.134;5.424;2023-04-05T09:51:17;102547.13;;;7.51;53.68
72086;BME280;64750;52.134;5.424;2023-04-05T09:56:37;102534.66;;;7.64;54.62
72086;BME280;64750;52.134;5.424;2023-04-05T09:59:09;102532.94;;;7.63;53.85
72086;BME280;64750;52.134;5.424;2023-04-05T10:01:37;102536.41;;;7.64;53.98
72086;BME280;64750;52.134;5.424;2023-04-05T10:04:07;102526.69;;;7.70;53.36
72086;BME280;64750;52.134;5.424;2023-04-05T10:06:38;102527.34;;;7.80;53.17
72086;BME280;64750;52.134;5.424;2023-04-05T10:09:07;102526.31;;;7.87;53.52
72086;BME280;64750;52.134;5.424;2023-04-05T10:11:35;102514.19;;;7.83;51.32
72086;BME280;64750;52.134;5.424;2023-04-05T10:14:06;102516.19;;;7.72;51.74
72086;BME280;64750;52.134;5.424;2023-04-05T10:17:12;102512.53;;;7.79;53.00
72086;BME280;64750;52.134;5.424;2023-04-05T10:20:13;102508.88;;;7.86;52.31
72086;BME280;64750;52.134;5.424;2023-04-05T10:25:40;102503.44;;;7.96;53.15
72086;BME280;64750;52.134;5.424;2023-04-05T10:28:11;102504.19;;;8.02;53.29
72086;BME280;64750;52.134;5.424;2023-04-05T10:30:46;102504.91;;;8.09;52.38
72086;BME280;64750;52.134;5.424;2023-04-05T10:33:21;102507.53;;;8.09;51.25
72086;BME280;64750;52.134;5.424;2023-04-05T10:38:26;102495.31;;;8.08;51.18
72086;BME280;64750;52.134;5.424;2023-04-05T10:40:56;102494.44;;;8.09;51.98
72086;BME280;64750;52.134;5.424;2023-04-05T10:43:24;102493.50;;;8.12;51.99
72086;BME280;64750;52.134;5.424;2023-04-05T10:45:53;102492.47;;;8.17;52.83
72086;BME280;64750;52.134;5.424;2023-04-05T10:48:35;102480.69;;;8.37;52.38
72086;BME280;64750;52.134;5.424;2023-04-05T10:51:03;102483.22;;;8.40;52.80
72086;BME280;64750;52.134;5.424;2023-04-05T10:53:30;102475.34;;;8.40;52.88
72086;BME280;64750;52.134;5.424;2023-04-05T10:56:00;102478.66;;;8.48;52.51
72086;BME280;64750;52.134;5.424;2023-04-05T10:58:27;102478.59;;;8.51;52.73
72086;BME280;64750;52.134;5.424;2023-04-05T11:00:55;102472.53;;;8.49;51.25
72086;BME280;64750;52.134;5.424;2023-04-05T11:06:20;102464.72;;;8.48;51.76
72086;BME280;64750;52.134;5.424;2023-04-05T11:08:50;102471.69;;;8.49;52.28
72086;BME280;64750;52.134;5.424;2023-04-05T11:11:18;102465.41;;;8.54;52.44
72086;BME280;64750;52.134;5.424;2023-04-05T11:13:56;102457.44;;;8.59;51.19
72086;BME280;64750;52.134;5.424;2023-04-05T11:16:37;102463.47;;;8.63;51.39
72086;BME280;64750;52.134;5.424;2023-04-05T11:19:04;102456.34;;;8.68;49.79
72086;BME280;64750;52.134;5.424;2023-04-05T11:21:32;102452.97;;;8.63;47.80
72086;BME280;64750;52.134;5.424;2023-04-05T11:24:08;102453.84;;;8.63;48.22
72086;BME280;64750;52.134;5.424;2023-04-05T11:29:06;102446.16;;;8.56;46.46
72086;BME280;64750;52.134;5.424;2023-04-05T11:31:32;102447.09;;;8.53;47.53
72086;BME280;64750;52.134;5.424;2023-04-05T11:34:02;102444.44;;;8.54;48.47
72086;BME280;64750;52.134;5.424;2023-04-05T11:36:36;102445.91;;;8.65;48.88
72086;BME280;64750;52.134;5.424;2023-04-05T11:41:58;102431.41;;;8.86;50.34
72086;BME280;64750;52.134;5.424;2023-04-05T11:44:27;102432.03;;;8.94;48.62
72086;BME280;64750;52.134;5.424;2023-04-05T11:46:54;102428.34;;;9.01;47.08
72086;BME280;64750;52.134;5.424;2023-04-05T11:49:22;102415.00;;;9.09;47.27
72086;BME280;64750;52.134;5.424;2023-04-05T11:51:51;102416.75;;;9.10;47.55
72086;BME280;64750;52.134;5.424;2023-04-05T11:54:28;102415.63;;;9.17;47.63
72086;BME280;64750;52.134;5.424;2023-04-05T11:56:55;102416.47;;;9.19;47.51
72086;BME280;64750;52.134;5.424;2023-04-05T11:59:34;102417.31;;;9.20;47.30
72086;BME280;64750;52.134;5.424;2023-04-05T12:02:04;102405.28;;;9.13;45.24
72086;BME280;64750;52.134;5.424;2023-04-05T12:04:35;102401.75;;;9.14;46.96
72086;BME280;64750;52.134;5.424;2023-04-05T12:07:31;102404.91;;;9.25;46.63
72086;BME280;64750;52.134;5.424;2023-04-05T12:10:05;102399.81;;;9.21;44.79
72086;BME280;64750;52.134;5.424;2023-04-05T12:12:43;102400.78;;;9.16;46.02
72086;BME280;64750;52.134;5.424;2023-04-05T12:15:11;102394.41;;;9.27;48.29
72086;BME280;64750;52.134;5.424;2023-04-05T12:17:47;102393.13;;;9.40;47.69
72086;BME280;64750;52.134;5.424;2023-04-05T12:20:18;102389.91;;;9.59;47.03
72086;BME280;64750;52.134;5.424;2023-04-05T12:22:46;102392.47;;;9.62;47.04
72086;BME280;64750;52.134;5.424;2023-04-05T12:25:17;102387.97;;;9.65;46.21
72086;BME280;64750;52.134;5.424;2023-04-05T12:27:43;102386.00;;;9.72;47.49
72086;BME280;64750;52.134;5.424;2023-04-05T12:30:20;102381.34;;;9.80;45.94
72086;BME280;64750;52.134;5.424;2023-04-05T12:32:52;102382.06;;;9.85;46.68
72086;BME280;64750;52.134;5.424;2023-04-05T12:35:28;102375.84;;;9.90;47.04
72086;BME280;64750;52.134;5.424;2023-04-05T12:38:03;102371.31;;;9.93;46.75
72086;BME280;64750;52.134;5.424;2023-04-05T12:40:32;102376.63;;;9.92;45.85
72086;BME280;64750;52.134;5.424;2023-04-05T12:43:03;102376.44;;;9.98;46.05
72086;BME280;64750;52.134;5.424;2023-04-05T12:45:30;102362.97;;;10.07;46.05
72086;BME280;64750;52.134;5.424;2023-04-05T12:48:08;102365.41;;;10.13;44.96
72086;BME280;64750;52.134;5.424;2023-04-05T12:50:41;102369.94;;;10.08;45.61
72086;BME280;64750;52.134;5.424;2023-04-05T12:53:08;102366.44;;;10.09;45.15
72086;BME280;64750;52.134;5.424;2023-04-05T12:55:41;102364.50;;;10.14;44.96
72086;BME280;64750;52.134;5.424;2023-04-05T12:58:09;102355.09;;;10.07;44.40
72086;BME280;64750;52.134;5.424;2023-04-05T13:00:35;102343.81;;;10.05;44.62
72086;BME280;64750;52.134;5.424;2023-04-05T13:03:02;102346.19;;;10.11;44.74
72086;BME280;64750;52.134;5.424;2023-04-05T13:05:29;102338.97;;;10.18;45.24
72086;BME280;64750;52.134;5.424;2023-04-05T13:07:56;102334.50;;;10.22;46.80
72086;BME280;64750;52.134;5.424;2023-04-05T13:10:24;102334.44;;;10.23;45.71
72086;BME280;64750;52.134;5.424;2023-04-05T13:12:51;102334.56;;;10.18;44.49
72086;BME280;64750;52.134;5.424;2023-04-05T13:15:17;102334.38;;;10.25;44.38
72086;BME280;64750;52.134;5.424;2023-04-05T13:17:44;102316.59;;;10.31;45.47
72086;BME280;64750;52.134;5.424;2023-04-05T13:20:16;102319.69;;;10.44;45.57
72086;BME280;64750;52.134;5.424;2023-04-05T13:22:43;102320.38;;;10.49;45.14
72086;BME280;64750;52.134;5.424;2023-04-05T13:25:09;102314.09;;;10.54;45.32
72086;BME280;64750;52.134;5.424;2023-04-05T13:27:36;102311.38;;;10.57;44.66
72086;BME280;64750;52.134;5.424;2023-04-05T13:30:02;102306.94;;;10.59;45.64
72086;BME280;64750;52.134;5.424;2023-04-05T13:32:29;102304.91;;;10.65;45.20